Time;durP1;ratioP1;P1;durP2;ratioP2;P2;SDS_P1;SDS_P2;PMS_P1;PMS_P2;Temp;Humidity;BMP_temperature;BMP_pressure;BME280_temperature;BME280_humidity;BME280_pressure;Samples;Min_cycle;Max_cycle;Signal;HPM_P1;HPM_P2
2023/03/28 00:01:27;;;;;;;16.45;15.45;;;;;;;10.85;52.03;102589.03;5035355;28;20057;-80
2023/03/28 00:03:53;;;;;;;15.60;14.70;;;;;;;10.84;51.82;102592.78;5034993;28;20036;-79
2023/03/28 00:06:19;;;;;;;15.32;14.52;;;;;;;10.82;51.83;102584.03;5034891;28;20065;-80
2023/03/28 00:08:46;;;;;;;15.20;14.40;;;;;;;10.81;51.81;102585.09;5035018;28;20451;-82
2023/03/28 00:11:18;;;;;;;14.55;13.75;;;;;;;10.78;51.86;102572.78;5034805;28;20069;-80
2023/03/28 00:13:46;;;;;;;15.38;14.43;;;;;;;10.77;51.87;102587.34;5033856;28;20022;-79
2023/03/28 00:16:13;;;;;;;14.73;13.93;;;;;;;10.76;51.88;102591.09;5035312;28;20040;-79
2023/03/28 00:18:39;;;;;;;15.00;14.10;;;;;;;10.75;51.83;102591.28;5032654;28;20030;-81
2023/03/28 00:21:23;;;;;;;16.08;15.07;;;;;;;10.73;51.87;102586.06;5034858;28;20022;-79
2023/03/28 00:23:53;;;;;;;15.02;14.23;;;;;;;10.71;52.23;102587.28;5034921;28;20033;-78
2023/03/28 00:26:21;;;;;;;14.65;13.75;;;;;;;10.69;51.66;102590.22;5034579;28;20025;-80
2023/03/28 00:28:46;;;;;;;14.20;13.48;;;;;;;10.68;51.84;102590.38;5034574;28;20025;-80
2023/03/28 00:31:13;;;;;;;16.02;14.85;;;;;;;10.66;51.96;102584.34;5034735;28;20501;-79
2023/03/28 00:33:38;;;;;;;15.30;14.50;;;;;;;10.65;51.87;102586.22;5034683;28;20102;-80
2023/03/28 00:36:04;;;;;;;16.95;15.70;;;;;;;10.63;51.80;102590.97;5034349;28;20528;-81
2023/03/28 00:38:30;;;;;;;14.85;14.05;;;;;;;10.63;51.99;102598.25;5034379;28;20026;-79
2023/03/28 00:40:58;;;;;;;16.35;15.30;;;;;;;10.61;51.71;102591.19;5034705;28;20033;-79
2023/03/28 00:43:40;;;;;;;15.33;14.53;;;;;;;10.59;51.78;102595.13;5034051;28;20029;-79
2023/03/28 00:46:37;;;;;;;16.67;15.68;;;;;;;10.55;51.79;102594.66;5034499;28;20025;-78
2023/03/28 00:49:09;;;;;;;16.45;15.38;;;;;;;10.54;51.83;102589.47;5028126;28;20041;-78
2023/03/28 00:51:38;;;;;;;13.75;13.05;;;;;;;10.54;51.69;102584.06;5035135;28;20029;-80
2023/03/28 00:54:08;;;;;;;15.45;14.45;;;;;;;10.53;51.73;102583.25;5034518;28;20048;-79
2023/03/28 00:56:36;;;;;;;13.93;13.13;;;;;;;10.52;51.71;102594.25;5033894;28;20431;-78
2023/03/28 00:59:07;;;;;;;15.85;14.75;;;;;;;10.50;51.81;102591.72;5034370;28;20084;-78
2023/03/28 01:01:33;;;;;;;13.35;12.65;;;;;;;10.49;51.81;102589.25;5035056;28;20060;-80
2023/03/28 01:04:02;;;;;;;16.98;16.00;;;;;;;10.48;52.06;102588.41;5034153;28;20025;-79
2023/03/28 01:06:39;;;;;;;14.25;13.45;;;;;;;10.46;51.84;102593.16;5033076;28;20037;-79
2023/03/28 01:09:06;;;;;;;15.75;14.68;;;;;;;10.45;51.82;102593.34;5034198;28;20049;-80
2023/03/28 01:11:35;;;;;;;14.18;13.38;;;;;;;10.44;51.81;102580.88;5033876;28;20029;-80
2023/03/28 01:14:03;;;;;;;15.52;14.52;;;;;;;10.42;51.82;102582.94;5034164;28;20033;-80
2023/03/28 01:16:29;;;;;;;16.85;15.45;;;;;;;10.41;51.57;102582.13;5033667;28;20432;-79
2023/03/28 01:19:00;;;;;;;15.20;14.40;;;;;;;10.39;51.75;102582.31;5034102;28;20029;-75
2023/03/28 01:21:52;;;;;;;15.15;14.35;;;;;;;10.36;51.61;102574.59;5033955;28;20053;-79
2023/03/28 01:24:20;;;;;;;14.77;13.98;;;;;;;10.34;51.84;102576.66;5033578;28;20022;-81
2023/03/28 01:27:02;;;;;;;15.07;14.20;;;;;;;10.31;51.79;102574.34;5033720;28;20021;-81
2023/03/28 01:29:46;;;;;;;15.88;14.85;;;;;;;10.29;52.03;102568.31;5033788;28;20123;-80
2023/03/28 01:32:30;;;;;;;15.68;14.43;;;;;;;10.27;51.73;102567.63;5034006;28;20053;-80
2023/03/28 01:35:40;;;;;;;14.77;13.98;;;;;;;10.24;51.62;102562.63;5033819;28;20033;-77
2023/03/28 01:38:20;;;;;;;16.27;15.02;;;;;;;10.21;51.72;102565.72;5034161;28;20033;-80
2023/03/28 01:41:33;;;;;;;14.88;13.80;;;;;;;10.20;51.89;102566.72;5034012;28;20064;-81
2023/03/28 01:44:18;;;;;;;13.48;12.65;;;;;;;10.17;51.99;102565.25;4987055;28;20397;-78
2023/03/28 01:46:57;;;;;;;13.35;12.65;;;;;;;10.16;51.84;102562.78;5033975;28;20104;-79
2023/03/28 01:49:43;;;;;;;13.27;12.38;;;;;;;10.15;51.92;102563.78;5033755;28;20030;-79
2023/03/28 01:52:19;;;;;;;15.80;14.80;;;;;;;10.14;51.96;102562.13;5033952;28;20093;-80
2023/03/28 01:55:02;;;;;;;14.95;14.05;;;;;;;10.13;51.75;102568.53;5034521;28;20054;-78
2023/03/28 01:57:33;;;;;;;13.70;12.90;;;;;;;10.11;51.74;102563.34;5033769;28;20029;-79
2023/03/28 02:00:11;;;;;;;14.60;13.80;;;;;;;10.10;51.86;102558.13;5033225;28;20462;-75
2023/03/28 02:03:04;;;;;;;14.68;13.90;;;;;;;10.08;51.90;102561.06;5033376;28;20057;-80
2023/03/28 02:05:32;;;;;;;14.27;13.48;;;;;;;10.09;51.68;102564.59;5025787;28;20431;-81
2023/03/28 02:08:01;;;;;;;12.82;12.13;;;;;;;10.07;51.79;102562.06;5033297;28;20079;-81
2023/03/28 02:10:31;;;;;;;14.25;13.38;;;;;;;10.07;51.92;102563.94;5032519;28;20078;-79
2023/03/28 02:13:02;;;;;;;14.32;13.52;;;;;;;10.05;51.63;102560.59;5033336;28;20355;-80
2023/03/28 02:15:29;;;;;;;14.43;13.63;;;;;;;10.05;51.78;102557.88;5033699;28;20022;-81
2023/03/28 02:18:00;;;;;;;14.02;13.23;;;;;;;10.04;51.79;102556.22;5048442;28;20041;-80
2023/03/28 02:20:30;;;;;;;13.82;12.93;;;;;;;10.02;51.88;102552.88;5033842;28;20021;-80
2023/03/28 02:23:10;;;;;;;15.10;14.30;;;;;;;10.01;51.66;102562.84;5033062;28;20446;-80
2023/03/28 02:25:36;;;;;;;14.52;13.63;;;;;;;10.00;51.50;102549.53;5033162;28;20375;-80
2023/03/28 02:28:05;;;;;;;13.35;12.65;;;;;;;9.99;51.82;102551.41;5033035;28;20493;-79
2023/03/28 02:30:32;;;;;;;14.88;14.07;;;;;;;9.98;51.52;102547.06;5032960;28;20032;-80
2023/03/28 02:33:00;;;;;;;14.55;13.75;;;;;;;9.97;51.76;102539.97;5032941;28;20057;-79
2023/03/28 02:35:40;;;;;;;13.38;12.68;;;;;;;9.96;51.78;102549.09;5032890;28;20537;-80
2023/03/28 02:38:24;;;;;;;13.57;12.85;;;;;;;9.93;51.61;102542.22;5032901;28;20026;-80
2023/03/28 02:41:31;;;;;;;13.93;13.15;;;;;;;9.92;51.84;102542.41;5033334;28;20064;-81
2023/03/28 02:44:08;;;;;;;13.20;12.50;;;;;;;9.88;51.76;102543.84;4956240;29;20031;-80
2023/03/28 02:46:39;;;;;;;14.65;13.85;;;;;;;9.86;51.84;102544.03;4956339;29;20034;-81
2023/03/28 02:49:23;;;;;;;15.32;14.25;;;;;;;9.86;51.61;102544.03;5002494;28;20397;-77
2023/03/28 02:52:13;;;;;;;14.70;13.90;;;;;;;9.85;51.53;102544.22;5036207;28;20041;-80
2023/03/28 02:55:00;;;;;;;12.57;11.88;;;;;;;9.81;51.73;102540.25;5037199;28;20107;-79
2023/03/28 02:57:30;;;;;;;13.48;12.68;;;;;;;9.80;51.73;102542.09;5036429;28;20100;-79
2023/03/28 03:00:12;;;;;;;13.77;12.98;;;;;;;9.79;51.86;102539.59;5036332;28;20025;-79
2023/03/28 03:02:50;;;;;;;12.95;12.25;;;;;;;9.78;51.73;102538.78;5052542;28;20021;-80
2023/03/28 03:05:16;;;;;;;14.60;13.70;;;;;;;9.77;51.78;102539.78;5036945;28;20037;-78
2023/03/28 03:07:42;;;;;;;13.68;12.88;;;;;;;9.77;51.83;102536.25;5035815;28;20026;-79
2023/03/28 03:10:10;;;;;;;14.13;13.35;;;;;;;9.76;51.56;102546.22;5035746;28;20038;-77
2023/03/28 03:12:36;;;;;;;13.20;12.50;;;;;;;9.75;51.76;102540.00;5036014;28;20365;-80
2023/03/28 03:15:03;;;;;;;12.85;12.10;;;;;;;9.74;51.65;102541.00;5036021;28;20260;-79
2023/03/28 03:17:29;;;;;;;13.63;12.90;;;;;;;9.73;51.47;102539.34;5035453;28;20025;-80
2023/03/28 03:19:55;;;;;;;14.63;12.82;;;;;;;9.73;51.78;102541.22;5035922;28;20053;-81
2023/03/28 03:22:21;;;;;;;14.98;13.98;;;;;;;9.71;51.75;102544.09;5036385;28;20425;-79
2023/03/28 03:24:49;;;;;;;13.32;12.63;;;;;;;9.71;51.58;102543.25;5035468;28;20029;-81
2023/03/28 03:27:18;;;;;;;15.70;14.65;;;;;;;9.70;51.57;102546.97;5035768;28;20040;-79
2023/03/28 03:29:44;;;;;;;13.45;12.43;;;;;;;9.67;51.52;102542.78;5035669;28;20462;-81
2023/03/28 03:32:10;;;;;;;16.33;12.15;;;;;;;9.67;51.56;102541.97;5035723;28;20470;-80
2023/03/28 03:34:36;;;;;;;15.00;14.10;;;;;;;9.65;51.51;102538.63;5035642;28;20026;-78
2023/03/28 03:37:03;;;;;;;13.90;13.10;;;;;;;9.64;51.55;102545.88;5017797;28;20060;-80
2023/03/28 03:39:28;;;;;;;14.57;13.63;;;;;;;9.64;51.64;102540.50;5035436;28;20029;-80
2023/03/28 03:41:55;;;;;;;13.75;12.93;;;;;;;9.63;51.80;102540.69;5035718;28;20033;-79
2023/03/28 03:44:21;;;;;;;15.65;14.65;;;;;;;9.61;51.53;102543.56;5035643;28;20037;-77
2023/03/28 03:46:47;;;;;;;14.73;13.82;;;;;;;9.61;51.45;102537.34;5035439;28;20040;-78
2023/03/28 03:49:12;;;;;;;15.23;12.57;;;;;;;9.60;51.52;102535.66;5035470;28;20045;-79
2023/03/28 03:51:38;;;;;;;13.90;13.10;;;;;;;9.58;51.46;102532.34;5034409;28;20033;-80
2023/03/28 03:54:04;;;;;;;14.65;13.75;;;;;;;9.56;51.37;102532.53;5034506;28;20057;-79
2023/03/28 03:56:30;;;;;;;16.60;14.98;;;;;;;9.56;51.45;102535.22;5035143;28;20108;-79
2023/03/28 03:58:55;;;;;;;14.05;13.30;;;;;;;9.54;51.51;102535.41;5035076;28;20116;-78
2023/03/28 04:01:24;;;;;;;16.00;14.88;;;;;;;9.53;51.50;102532.91;5035305;28;20374;-78
2023/03/28 04:03:50;;;;;;;13.57;12.00;;;;;;;9.52;51.28;102528.53;5035597;28;20053;-79
2023/03/28 04:06:16;;;;;;;15.40;14.30;;;;;;;9.52;51.56;102533.94;5034909;28;20052;-79
2023/03/28 04:08:42;;;;;;;14.32;13.52;;;;;;;9.50;51.43;102526.03;5035174;28;20029;-79
2023/03/28 04:11:09;;;;;;;13.80;12.85;;;;;;;9.49;51.43;102523.53;5035558;28;20033;-80
2023/03/28 04:13:35;;;;;;;14.70;13.70;;;;;;;9.48;51.70;102528.09;5034902;28;20503;-79
2023/03/28 04:16:00;;;;;;;11.98;11.38;;;;;;;9.46;51.32;102524.75;5035353;28;20029;-80
2023/03/28 04:18:28;;;;;;;15.52;14.50;;;;;;;9.45;51.28;102533.88;5034651;28;20029;-79
2023/03/28 04:20:56;;;;;;;14.03;13.23;;;;;;;9.44;51.49;102534.88;5035048;28;20072;-80
2023/03/28 04:23:24;;;;;;;14.65;13.68;;;;;;;9.43;51.53;102533.22;5034634;28;20303;-76
2023/03/28 04:25:57;;;;;;;14.18;13.27;;;;;;;9.42;51.51;102528.84;5034687;28;20033;-78
2023/03/28 04:28:24;;;;;;;14.35;13.45;;;;;;;9.40;51.36;102530.91;5034894;28;20033;-78
2023/03/28 04:30:56;;;;;;;13.77;12.98;;;;;;;9.40;51.50;102528.22;5033370;28;20030;-79
2023/03/28 04:33:26;;;;;;;15.10;14.10;;;;;;;9.37;51.73;102531.28;5034374;28;20112;-77
2023/03/28 04:35:58;;;;;;;14.63;13.73;;;;;;;9.37;51.57;102525.06;5034440;28;20108;-78
2023/03/28 04:38:31;;;;;;;15.52;14.32;;;;;;;9.34;51.56;102526.28;5032985;28;20036;-80
2023/03/28 04:40:58;;;;;;;14.07;13.20;;;;;;;9.33;51.55;102521.91;5034198;28;20030;-76
2023/03/28 04:43:25;;;;;;;15.27;14.27;;;;;;;9.32;51.38;102528.31;5034747;28;20071;-78
2023/03/28 04:45:54;;;;;;;13.93;13.13;;;;;;;9.30;51.45;102528.53;5034252;28;20045;-78
2023/03/28 04:48:21;;;;;;;13.60;12.82;;;;;;;9.30;51.43;102530.41;5033999;28;20351;-77
2023/03/28 04:50:46;;;;;;;12.77;12.07;;;;;;;9.29;51.60;102532.22;5034227;28;20037;-80
2023/03/28 04:53:12;;;;;;;14.18;13.27;;;;;;;9.28;51.29;102535.13;5034260;28;20049;-79
2023/03/28 04:55:38;;;;;;;13.27;12.48;;;;;;;9.27;51.39;102534.31;5033138;28;20088;-80
2023/03/28 04:58:07;;;;;;;13.38;12.57;;;;;;;9.28;51.06;102527.03;5033961;28;20029;-78
2023/03/28 05:00:33;;;;;;;14.18;13.23;;;;;;;9.25;51.63;102528.25;5033977;28;20032;-80
2023/03/28 05:02:58;;;;;;;14.38;13.57;;;;;;;9.24;51.35;102529.28;5033902;28;20034;-79
2023/03/28 05:05:25;;;;;;;14.63;13.70;;;;;;;9.23;51.34;102530.31;5033519;28;20140;-82
2023/03/28 05:07:50;;;;;;;14.93;14.07;;;;;;;9.22;51.57;102534.03;5034051;28;20030;-79
2023/03/28 05:10:16;;;;;;;12.23;11.63;;;;;;;9.21;51.50;102535.03;5033884;28;20029;-79
2023/03/28 05:12:41;;;;;;;13.50;12.70;;;;;;;9.20;51.46;102535.25;5033617;28;20076;-80
2023/03/28 05:15:07;;;;;;;13.50;12.70;;;;;;;9.18;51.38;102530.03;5033875;28;20095;-80
2023/03/28 05:17:33;;;;;;;15.15;14.18;;;;;;;9.18;51.45;102540.81;5034012;28;20033;-79
2023/03/28 05:19:58;;;;;;;12.82;12.13;;;;;;;9.16;51.44;102539.34;5033887;28;20041;-79
2023/03/28 05:22:24;;;;;;;12.93;12.18;;;;;;;9.15;51.27;102541.22;5033888;28;20428;-80
2023/03/28 05:24:49;;;;;;;15.35;12.77;;;;;;;9.13;51.22;102534.34;5033975;28;20053;-77
2023/03/28 05:27:16;;;;;;;14.05;13.27;;;;;;;9.13;51.37;102537.03;5033930;28;20434;-80
2023/03/28 05:29:41;;;;;;;14.65;13.60;;;;;;;9.11;51.09;102531.81;5033542;28;20112;-78
2023/03/28 05:32:07;;;;;;;13.40;12.70;;;;;;;9.09;51.13;102542.78;5033343;28;20064;-78
2023/03/28 05:34:34;;;;;;;14.93;13.93;;;;;;;9.09;51.37;102547.34;5033776;28;20033;-79
2023/03/28 05:37:01;;;;;;;12.60;11.70;;;;;;;9.08;51.29;102549.22;5033497;28;20052;-79
2023/03/28 05:39:26;;;;;;;12.27;11.60;;;;;;;9.06;51.24;102551.25;5032967;28;20450;-76
2023/03/28 05:41:52;;;;;;;13.13;12.40;;;;;;;9.05;51.28;102552.28;5033162;28;20034;-79
2023/03/28 05:44:17;;;;;;;13.20;12.40;;;;;;;9.04;51.38;102552.47;5033713;28;20056;-78
2023/03/28 05:46:43;;;;;;;14.90;13.88;;;;;;;9.03;51.32;102551.63;5033725;28;20108;-79
2023/03/28 05:49:08;;;;;;;13.20;12.10;;;;;;;9.01;51.14;102550.97;5033562;28;20482;-79
2023/03/28 05:51:33;;;;;;;14.45;13.45;;;;;;;9.01;51.09;102547.44;5033380;28;20037;-79
2023/03/28 05:53:59;;;;;;;13.10;12.30;;;;;;;9.00;51.18;102548.50;5033383;28;20429;-79
2023/03/28 05:56:24;;;;;;;13.40;12.63;;;;;;;8.99;51.16;102546.78;5033633;28;20489;-79
2023/03/28 05:58:50;;;;;;;13.77;12.88;;;;;;;8.98;51.39;102550.53;5033209;28;20429;-78
2023/03/28 06:01:26;;;;;;;12.93;12.23;;;;;;;8.98;51.50;102547.84;5033383;28;20061;-80
2023/03/28 06:03:52;;;;;;;15.18;14.13;;;;;;;8.95;51.47;102540.97;5033052;28;20044;-76
2023/03/28 06:06:18;;;;;;;12.05;11.43;;;;;;;8.93;51.23;102537.59;5032037;28;20362;-76
2023/03/28 06:08:43;;;;;;;15.07;13.85;;;;;;;8.90;51.39;102540.69;5033842;28;20083;-78
2023/03/28 06:11:09;;;;;;;13.32;12.45;;;;;;;8.90;51.21;102540.69;5033085;28;20034;-79
2023/03/28 06:13:34;;;;;;;13.93;13.02;;;;;;;8.88;51.40;102546.25;5033185;28;20026;-77
2023/03/28 06:15:59;;;;;;;11.82;11.23;;;;;;;8.88;51.25;102545.44;5033180;28;20030;-77
2023/03/28 06:18:25;;;;;;;14.70;13.68;;;;;;;8.87;51.12;102551.84;5035623;28;20546;-77
2023/03/28 06:20:50;;;;;;;13.32;12.32;;;;;;;8.85;51.13;102551.19;5036918;28;20034;-77
2023/03/28 06:23:16;;;;;;;13.43;12.63;;;;;;;8.85;51.40;102556.59;5037288;28;20033;-81
2023/03/28 06:25:42;;;;;;;16.35;15.20;;;;;;;8.83;51.34;102548.66;5036888;28;20045;-78
2023/03/28 06:28:10;;;;;;;12.93;12.23;;;;;;;8.83;51.40;102554.06;5036730;28;20108;-77
2023/03/28 06:30:37;;;;;;;15.77;14.70;;;;;;;8.81;51.38;102553.41;5036912;28;20500;-77
2023/03/28 06:33:03;;;;;;;14.18;13.35;;;;;;;8.81;51.36;102560.66;5036776;28;20045;-76
2023/03/28 06:35:34;;;;;;;13.63;12.93;;;;;;;8.80;51.47;102557.13;5037624;28;20034;-81
2023/03/28 06:38:00;;;;;;;13.90;13.02;;;;;;;8.78;51.32;102556.47;5037228;28;20038;-78
2023/03/28 06:40:25;;;;;;;12.95;12.15;;;;;;;8.78;51.15;102550.25;5036736;28;20397;-76
2023/03/28 06:42:52;;;;;;;14.30;13.40;;;;;;;8.78;51.33;102561.03;5036542;28;20052;-75
2023/03/28 06:45:18;;;;;;;13.98;13.18;;;;;;;8.76;51.50;102558.53;5036643;28;20076;-76
2023/03/28 06:47:44;;;;;;;14.50;13.18;;;;;;;8.77;51.50;102564.75;5036530;28;20036;-76
2023/03/28 06:50:10;;;;;;;12.85;12.15;;;;;;;8.76;51.19;102565.78;5036468;28;20038;-80
2023/03/28 06:52:35;;;;;;;13.95;13.02;;;;;;;8.76;51.44;102568.47;5034858;28;20057;-79
2023/03/28 06:55:01;;;;;;;13.77;12.98;;;;;;;8.75;51.58;102564.13;5035486;28;20369;-78
2023/03/28 06:57:26;;;;;;;13.52;12.63;;;;;;;8.74;51.46;102574.03;5036079;28;20040;-77
2023/03/28 06:59:51;;;;;;;14.80;13.80;;;;;;;8.73;51.58;102574.25;5036389;28;20033;-78
2023/03/28 07:02:17;;;;;;;14.73;13.25;;;;;;;8.72;51.67;102572.53;5035173;28;20022;-80
2023/03/28 07:04:42;;;;;;;16.70;15.18;;;;;;;8.71;51.60;102566.31;5035696;28;20033;-81
2023/03/28 07:07:08;;;;;;;12.32;11.48;;;;;;;8.71;51.52;102569.03;5036566;28;20104;-77
2023/03/28 07:09:34;;;;;;;13.13;12.35;;;;;;;8.71;51.46;102570.88;5036084;28;20373;-76
2023/03/28 07:11:59;;;;;;;14.48;13.48;;;;;;;8.70;51.54;102572.75;5036851;28;20110;-81
2023/03/28 07:14:25;;;;;;;15.38;13.95;;;;;;;8.71;51.28;102573.56;5036416;28;20109;-78
2023/03/28 07:16:50;;;;;;;15.43;13.98;;;;;;;8.70;51.55;102574.63;5035711;28;20603;-81
2023/03/28 07:19:16;;;;;;;13.32;12.32;;;;;;;8.69;51.64;102573.75;5035917;28;20036;-82
2023/03/28 07:21:42;;;;;;;13.60;12.68;;;;;;;8.70;51.54;102574.63;5036410;28;20473;-78
2023/03/28 07:24:07;;;;;;;14.82;13.63;;;;;;;8.69;51.51;102572.91;5036334;28;20346;-80
2023/03/28 07:26:33;;;;;;;13.98;12.88;;;;;;;8.69;51.51;102572.91;5035880;28;20082;-81
2023/03/28 07:28:58;;;;;;;13.65;12.65;;;;;;;8.69;51.50;102571.06;5035762;28;20468;-77
2023/03/28 07:31:24;;;;;;;13.75;12.85;;;;;;;8.69;51.65;102568.38;5036127;28;20029;-79
2023/03/28 07:33:50;;;;;;;13.95;13.05;;;;;;;8.70;51.44;102571.91;5034466;28;20185;-78
2023/03/28 07:36:18;;;;;;;13.93;12.90;;;;;;;8.70;51.64;102566.53;5035781;28;20030;-77
2023/03/28 07:38:44;;;;;;;15.25;14.13;;;;;;;8.70;51.36;102571.91;5035538;28;20106;-80
2023/03/28 07:41:09;;;;;;;14.73;13.50;;;;;;;8.69;51.64;102571.06;5036018;28;20048;-78
2023/03/28 07:43:37;;;;;;;14.35;13.32;;;;;;;8.69;51.57;102565.66;5051354;28;20029;-78
2023/03/28 07:46:06;;;;;;;15.25;14.23;;;;;;;8.69;51.57;102573.75;5035308;28;20029;-78
2023/03/28 07:48:33;;;;;;;13.52;12.63;;;;;;;8.69;51.70;102572.91;5035312;28;20021;-77
2023/03/28 07:51:00;;;;;;;13.38;12.52;;;;;;;8.69;51.80;102571.06;5035154;28;20041;-78
2023/03/28 07:53:25;;;;;;;13.80;12.85;;;;;;;8.70;51.79;102574.63;5033742;28;20094;-76
2023/03/28 07:55:52;;;;;;;15.10;14.05;;;;;;;8.69;51.76;102568.38;5035148;28;20112;-78
2023/03/28 07:58:17;;;;;;;16.52;15.07;;;;;;;8.71;51.63;102563.63;5034633;28;20127;-78
2023/03/28 08:00:44;;;;;;;15.85;14.63;;;;;;;8.71;51.55;102574.41;5035282;28;20120;-77
2023/03/28 08:03:10;;;;;;;16.95;15.50;;;;;;;8.70;51.77;102561.97;5034815;28;20079;-79
2023/03/28 08:05:36;;;;;;;14.68;13.82;;;;;;;8.71;51.91;102568.19;5035059;28;20535;-78
2023/03/28 08:08:02;;;;;;;14.80;13.65;;;;;;;8.71;51.90;102563.63;5034824;28;20112;-77
2023/03/28 08:10:28;;;;;;;13.18;12.23;;;;;;;8.73;52.00;102560.75;5034433;28;20421;-80
2023/03/28 08:12:54;;;;;;;15.38;14.18;;;;;;;8.74;51.84;102567.81;5035320;28;20441;-78
2023/03/28 08:15:19;;;;;;;13.52;12.73;;;;;;;8.74;51.77;102568.63;5034843;28;20032;-76
2023/03/28 08:17:44;;;;;;;15.02;13.80;;;;;;;8.74;51.88;102562.44;5034666;28;20489;-78
2023/03/28 08:20:10;;;;;;;14.98;13.65;;;;;;;8.76;51.86;102557.69;5033604;28;20021;-77
2023/03/28 08:22:36;;;;;;;14.38;13.48;;;;;;;8.75;51.56;102559.56;5034752;28;20056;-79
2023/03/28 08:25:02;;;;;;;14.02;13.13;;;;;;;8.76;51.91;102563.09;5035103;28;20113;-80
2023/03/28 08:27:27;;;;;;;14.90;13.88;;;;;;;8.77;52.01;102575.53;5034107;28;20041;-79
2023/03/28 08:29:53;;;;;;;16.10;14.93;;;;;;;8.78;51.96;102566.44;5034218;28;20373;-78
2023/03/28 08:32:18;;;;;;;12.80;11.90;;;;;;;8.78;52.10;102567.25;5034301;28;20053;-79
2023/03/28 08:34:43;;;;;;;14.38;13.48;;;;;;;8.79;51.93;102568.09;5034123;28;20036;-78
2023/03/28 08:37:09;;;;;;;13.30;12.40;;;;;;;8.81;52.03;102563.34;5033234;28;20575;-79
2023/03/28 08:39:36;;;;;;;14.20;13.30;;;;;;;8.82;52.25;102568.56;5034325;28;20092;-80
2023/03/28 08:42:21;;;;;;;13.95;12.90;;;;;;;8.82;52.30;102554.25;5034411;28;20045;-79
2023/03/28 08:45:17;;;;;;;14.73;13.55;;;;;;;8.82;52.13;102565.88;5034664;28;20025;-78
2023/03/28 08:48:06;;;;;;;14.45;13.45;;;;;;;8.82;52.04;102552.41;5034343;28;20441;-78
2023/03/28 08:50:42;;;;;;;12.57;11.77;;;;;;;8.82;51.78;102559.63;5034210;28;20047;-81
2023/03/28 08:53:36;;;;;;;15.48;14.25;;;;;;;8.84;52.03;102555.75;5034621;28;20021;-79
2023/03/28 08:56:03;;;;;;;15.55;14.13;;;;;;;8.87;52.06;102549.97;5033819;28;20431;-80
2023/03/28 08:58:53;;;;;;;14.23;13.13;;;;;;;8.90;52.47;102543.38;5034234;28;20048;-80
2023/03/28 09:01:22;;;;;;;14.15;13.15;;;;;;;8.91;51.83;102555.81;5034028;28;20048;-80
2023/03/28 09:03:48;;;;;;;12.52;11.68;;;;;;;8.92;51.93;102554.81;5034358;28;20037;-80
2023/03/28 09:06:29;;;;;;;13.85;12.95;;;;;;;8.92;52.17;102549.44;5034312;28;20075;-81
2023/03/28 09:08:55;;;;;;;14.30;13.30;;;;;;;8.93;52.07;102551.09;5034571;28;20056;-80
2023/03/28 09:11:26;;;;;;;14.35;12.30;;;;;;;8.95;51.92;102551.75;5033888;28;20434;-80
2023/03/28 09:14:11;;;;;;;14.02;13.07;;;;;;;8.95;52.19;102550.91;5034031;28;20020;-81
2023/03/28 09:16:52;;;;;;;13.75;12.45;;;;;;;8.95;52.19;102553.59;5034185;28;20068;-78
2023/03/28 09:19:29;;;;;;;13.27;12.57;;;;;;;8.95;52.15;102551.75;5034684;28;20026;-84
2023/03/28 09:22:07;;;;;;;20.23;18.33;;;;;;;8.96;52.46;102547.19;5033989;28;20037;-80
2023/03/28 09:24:57;;;;;;;13.77;12.88;;;;;;;8.96;52.35;102544.47;5033627;28;20056;-81
2023/03/28 09:27:33;;;;;;;13.48;12.50;;;;;;;8.97;52.38;102546.16;5033480;28;20029;-80
2023/03/28 09:30:17;;;;;;;13.93;13.02;;;;;;;8.97;52.32;102538.06;5032411;28;20110;-80
2023/03/28 09:32:43;;;;;;;13.70;12.80;;;;;;;8.98;52.28;102537.06;5049835;28;20104;-81
2023/03/28 09:35:15;;;;;;;12.70;11.95;;;;;;;9.01;52.15;102532.09;5032465;28;20432;-79
2023/03/28 09:37:43;;;;;;;13.18;12.30;;;;;;;9.03;52.54;102530.06;5033445;28;20025;-80
2023/03/28 09:40:20;;;;;;;12.57;11.88;;;;;;;9.04;52.36;102520.94;5032205;28;20508;-79
2023/03/28 09:42:51;;;;;;;14.15;13.25;;;;;;;9.05;52.54;102527.19;5033537;28;20025;-81
2023/03/28 09:45:17;;;;;;;13.35;12.63;;;;;;;9.06;52.45;102528.84;5033886;28;20422;-79
2023/03/28 09:47:48;;;;;;;16.05;14.52;;;;;;;9.07;52.46;102527.81;5033815;28;20028;-76
2023/03/28 09:50:18;;;;;;;13.60;12.80;;;;;;;9.07;52.43;102525.13;5034190;28;20025;-77
2023/03/28 09:52:45;;;;;;;12.13;11.43;;;;;;;9.07;52.30;102515.19;5037995;28;20108;-77
2023/03/28 09:55:23;;;;;;;14.23;13.40;;;;;;;9.06;52.52;102507.28;5037648;28;20387;-78
2023/03/28 09:58:05;;;;;;;13.57;12.77;;;;;;;9.07;52.70;102493.63;5038033;28;20021;-81
2023/03/28 10:00:35;;;;;;;13.57;12.45;;;;;;;9.09;52.88;102493.44;5037699;28;20029;-77
2023/03/28 10:03:00;;;;;;;16.45;14.30;;;;;;;9.10;52.71;102487.03;5037339;28;20076;-78
2023/03/28 10:05:31;;;;;;;17.50;13.45;;;;;;;9.13;52.58;102491.19;5037452;28;20056;-77
2023/03/28 10:08:01;;;;;;;13.95;12.98;;;;;;;9.14;52.62;102484.78;5037179;28;20099;-77
2023/03/28 10:10:27;;;;;;;13.52;12.63;;;;;;;9.15;52.53;102481.03;5037359;28;20026;-78
2023/03/28 10:13:01;;;;;;;14.15;13.15;;;;;;;9.15;52.59;102476.50;5037231;28;20503;-78
2023/03/28 10:15:32;;;;;;;12.48;11.75;;;;;;;9.15;52.64;102478.34;5037340;28;20025;-77
2023/03/28 10:18:03;;;;;;;15.48;14.48;;;;;;;9.17;52.88;102473.59;5037599;28;20434;-78
2023/03/28 10:20:35;;;;;;;14.63;13.65;;;;;;;9.18;52.43;102475.28;5037313;28;20032;-78
2023/03/28 10:23:02;;;;;;;14.55;13.32;;;;;;;9.21;52.70;102472.19;5036986;28;20475;-78
2023/03/28 10:25:45;;;;;;;12.95;12.25;;;;;;;9.21;52.75;102467.63;5036996;28;20418;-76
2023/03/28 10:28:26;;;;;;;15.27;14.30;;;;;;;9.23;52.99;102470.16;5037018;28;20033;-78
2023/03/28 10:30:56;;;;;;;13.10;12.30;;;;;;;9.25;52.94;102457.31;5037540;28;20032;-77
2023/03/28 10:33:42;;;;;;;13.85;13.05;;;;;;;9.26;52.74;102457.13;5037222;28;20087;-78
2023/03/28 10:36:11;;;;;;;14.13;13.18;;;;;;;9.28;52.88;102451.53;5036896;28;20051;-82
2023/03/28 10:38:44;;;;;;;14.07;13.07;;;;;;;9.31;52.79;102451.16;5037266;28;20026;-80
2023/03/28 10:41:18;;;;;;;15.45;14.38;;;;;;;9.35;52.63;102448.88;5037701;28;20446;-80
2023/03/28 10:43:44;;;;;;;15.00;14.00;;;;;;;9.37;52.62;102434.19;5037581;28;20025;-79
2023/03/28 10:46:33;;;;;;;15.57;14.38;;;;;;;9.39;52.74;102440.22;5036722;28;20037;-79
2023/03/28 10:49:12;;;;;;;14.73;13.63;;;;;;;9.41;52.75;102432.78;5037013;28;20041;-80
2023/03/28 10:51:39;;;;;;;13.45;12.65;;;;;;;9.44;52.51;102436.94;5036218;28;20355;-80
2023/03/28 10:54:36;;;;;;;13.88;12.98;;;;;;;9.45;52.86;102420.59;5036419;28;20512;-79
2023/03/28 10:57:05;;;;;;;14.23;13.27;;;;;;;9.47;52.80;102418.50;5036457;28;20028;-82
2023/03/28 11:00:06;;;;;;;14.20;13.40;;;;;;;9.51;52.86;102405.47;5036616;28;20029;-79
2023/03/28 11:02:48;;;;;;;14.18;13.38;;;;;;;9.50;52.71;102399.25;5022192;28;20061;-83
2023/03/28 11:05:27;;;;;;;15.75;14.65;;;;;;;9.52;52.67;102393.66;5036868;28;20029;-81
2023/03/28 11:07:59;;;;;;;13.95;13.15;;;;;;;9.54;52.70;102389.72;5036349;28;20022;-80
2023/03/28 11:10:54;;;;;;;13.80;13.00;;;;;;;9.57;52.79;102384.97;5036835;28;20357;-83
2023/03/28 11:13:31;;;;;;;14.55;13.40;;;;;;;9.62;52.87;102396.84;5036247;28;20051;-80
2023/03/28 11:16:20;;;;;;;13.73;13.02;;;;;;;9.62;52.73;102386.06;5035270;28;20025;-80
2023/03/28 11:19:19;;;;;;;13.38;12.57;;;;;;;9.65;52.94;102391.06;5036333;28;20030;-79
2023/03/28 11:22:09;;;;;;;14.45;13.55;;;;;;;9.66;52.91;102384.63;5036291;28;20025;-81
2023/03/28 11:24:55;;;;;;;14.48;13.68;;;;;;;9.64;53.03;102385.88;5036600;28;20053;-82
2023/03/28 11:27:36;;;;;;;15.50;14.40;;;;;;;9.70;53.12;102390.47;5036099;28;20033;-79
2023/03/28 11:30:12;;;;;;;14.13;13.30;;;;;;;9.74;52.96;102375.56;5035807;28;20049;-78
2023/03/28 11:32:55;;;;;;;14.20;13.40;;;;;;;9.80;52.89;102373.94;5035810;28;20022;-78